createdAt,value
2024-04-17T00:03:14.957Z,101557.41
2024-04-17T00:08:18.975Z,101563.78
2024-04-17T00:13:23.113Z,101550.56
2024-04-17T00:18:27.427Z,101538.16
2024-04-17T00:23:31.192Z,101524.00
2024-04-17T00:28:35.039Z,101505.59
2024-04-17T00:33:38.986Z,101548.34
2024-04-17T00:38:43.349Z,101534.88
2024-04-17T00:43:47.354Z,101518.19
2024-04-17T00:48:51.223Z,101530.09
2024-04-17T00:53:55.498Z,101524.06
2024-04-17T00:59:01.139Z,101519.75
2024-04-17T01:04:05.296Z,101505.22
2024-04-17T01:09:09.340Z,101502.28
2024-04-17T01:14:13.454Z,101482.59
2024-04-17T01:19:19.183Z,101440.97
2024-04-17T01:24:23.171Z,101436.97
2024-04-17T01:29:26.960Z,101456.88
2024-04-17T01:34:31.023Z,101442.59
2024-04-17T01:39:35.040Z,101462.75
2024-04-17T01:44:39.117Z,101450.19
2024-04-17T01:49:43.109Z,101443.25
2024-04-17T01:54:47.009Z,101444.59
2024-04-17T01:59:50.992Z,101441.81
2024-04-17T02:04:54.740Z,101404.47
2024-04-17T02:09:58.586Z,101402.75
2024-04-17T02:15:02.740Z,101425.53
2024-04-17T02:20:09.443Z,101419.59
2024-04-17T02:25:13.290Z,101412.94
2024-04-17T02:30:17.104Z,101410.16
2024-04-17T02:35:21.071Z,101376.31
2024-04-17T02:40:25.178Z,101402.28
2024-04-17T02:45:29.335Z,101400.28
2024-04-17T02:50:33.306Z,101393.41
2024-04-17T02:55:37.324Z,101389.00
2024-04-17T03:00:41.272Z,101384.16
2024-04-17T03:05:44.919Z,101373.06
2024-04-17T03:10:48.776Z,101362.63
2024-04-17T03:15:52.837Z,101362.66
2024-04-17T03:21:02.082Z,101355.47
2024-04-17T03:26:06.143Z,101343.13
2024-04-17T03:31:10.079Z,101339.13
2024-04-17T03:36:14.317Z,101329.53
2024-04-17T03:41:18.273Z,101320.03
2024-04-17T03:46:22.359Z,101305.56
2024-04-17T03:51:26.098Z,101309.81
2024-04-17T03:56:30.060Z,101299.06
2024-04-17T04:01:38.459Z,101297.38
2024-04-17T04:06:42.327Z,101297.28
2024-04-17T04:11:46.324Z,101297.53
2024-04-17T04:16:50.349Z,101286.16
2024-04-17T04:21:54.301Z,101266.06
2024-04-17T04:26:57.989Z,101249.00
2024-04-17T04:32:01.965Z,101242.66
2024-04-17T04:37:06.054Z,101251.03
2024-04-17T04:42:10.231Z,101237.13
2024-04-17T04:47:16.960Z,101227.72
2024-04-17T04:52:20.762Z,101207.28
2024-04-17T04:57:25.090Z,101210.53
2024-04-17T05:02:28.757Z,101170.28
2024-04-17T05:07:32.585Z,101180.25
2024-04-17T05:12:36.354Z,101134.44
2024-04-17T05:17:40.540Z,101174.78
2024-04-17T05:22:44.422Z,101170.09
2024-04-17T05:27:48.495Z,101150.59
2024-04-17T05:32:52.541Z,101132.44
2024-04-17T05:37:56.454Z,101125.00
2024-04-17T05:43:00.650Z,101115.47
2024-04-17T05:48:05.193Z,101116.63
2024-04-17T05:53:09.483Z,101096.09
2024-04-17T05:58:13.376Z,101087.50
2024-04-17T06:03:17.165Z,101043.09
2024-04-17T06:08:21.297Z,101073.16
2024-04-17T06:13:25.303Z,101056.38
2024-04-17T06:18:29.193Z,101044.22
2024-04-17T06:23:33.288Z,101039.47
2024-04-17T06:28:37.035Z,101018.50
2024-04-17T06:33:40.972Z,101005.06
2024-04-17T06:38:46.651Z,100990.16
2024-04-17T06:43:50.401Z,100980.19
2024-04-17T06:48:54.572Z,100988.34
2024-04-17T06:53:58.425Z,100983.22
2024-04-17T06:59:02.402Z,100965.72
2024-04-17T07:04:06.360Z,100974.09
2024-04-17T07:09:10.283Z,100977.91
2024-04-17T07:14:14.253Z,100973.56
2024-04-17T07:19:18.038Z,100959.38
2024-04-17T07:24:21.911Z,100937.06
2024-04-17T07:29:25.754Z,100930.03
2024-04-17T07:34:29.828Z,100922.03
2024-04-17T07:39:33.834Z,100866.44
2024-04-17T07:44:37.664Z,100895.97
2024-04-17T07:49:41.671Z,100886.47
2024-04-17T07:54:45.415Z,100873.00
2024-04-17T07:59:49.468Z,100883.28
2024-04-17T08:04:53.370Z,100856.63
2024-04-17T08:09:57.375Z,100855.00
2024-04-17T08:15:01.271Z,100842.72
2024-04-17T08:20:08.503Z,100829.72
2024-04-17T08:25:12.515Z,100811.22
2024-04-17T08:30:16.322Z,100804.75
2024-04-17T08:35:21.164Z,100796.53
2024-04-17T08:40:25.425Z,100794.06
2024-04-17T08:50:46.043Z,100768.03
2024-04-17T08:55:51.230Z,100762.72
2024-04-17T09:00:56.341Z,100735.38
2024-04-17T09:06:00.831Z,100717.94
2024-04-17T09:11:06.694Z,100719.56
2024-04-17T09:16:10.614Z,100710.00
2024-04-17T09:21:15.392Z,100700.47
2024-04-17T09:26:20.932Z,100690.66
2024-04-17T09:31:25.506Z,100684.25
2024-04-17T09:36:29.591Z,100657.28
2024-04-17T09:41:35.400Z,100630.31
2024-04-17T09:46:39.722Z,100637.19
2024-04-17T09:51:47.753Z,100620.81
2024-04-17T09:56:52.507Z,100598.56
2024-04-17T10:01:59.323Z,100600.66
2024-04-17T10:07:04.622Z,100596.53
2024-04-17T10:12:14.239Z,100602.19
2024-04-17T10:17:29.979Z,100574.13
2024-04-17T10:22:40.213Z,100556.44
2024-04-17T10:27:51.159Z,100535.47
2024-04-17T10:32:55.343Z,100540.69
2024-04-17T10:38:19.530Z,100524.91
2024-04-17T10:43:36.484Z,100509.56
2024-04-17T10:48:51.952Z,100509.81
2024-04-17T10:53:57.558Z,100497.75
2024-04-17T10:59:03.210Z,100492.25
2024-04-17T11:04:08.736Z,100482.50
2024-04-17T11:09:14.126Z,100474.34
2024-04-17T11:14:19.072Z,100465.22
2024-04-17T11:19:23.192Z,100469.06
2024-04-17T11:24:26.912Z,100453.56
2024-04-17T11:29:39.811Z,100448.00
2024-04-17T11:34:47.361Z,100435.25
2024-04-17T11:39:52.595Z,100438.28
2024-04-17T11:44:57.455Z,100428.31
2024-04-17T11:50:01.840Z,100444.44
2024-04-17T11:55:08.199Z,100432.56
2024-04-17T12:00:12.908Z,100431.72
2024-04-17T12:05:16.794Z,100425.78
2024-04-17T12:10:21.862Z,100414.25
2024-04-17T12:15:26.000Z,100427.50
2024-04-17T12:20:29.884Z,100427.06
2024-04-17T12:25:52.267Z,100398.28
2024-04-17T12:30:57.460Z,100402.38
2024-04-17T12:36:01.940Z,100394.44
2024-04-17T12:41:06.022Z,100384.47
2024-04-17T12:46:10.064Z,100373.66
2024-04-17T12:51:14.245Z,100375.00
2024-04-17T12:56:20.401Z,100347.38
2024-04-17T13:01:24.293Z,100346.91
2024-04-17T13:06:30.635Z,100337.66
2024-04-17T13:11:40.503Z,100333.75
2024-04-17T13:16:45.105Z,100304.28
2024-04-17T13:21:48.936Z,100317.84
2024-04-17T13:26:52.962Z,100306.13
2024-04-17T13:31:56.805Z,100305.31
2024-04-17T13:37:01.147Z,100295.59
2024-04-17T13:42:05.591Z,100292.78
2024-04-17T13:47:09.573Z,100282.22
2024-04-17T13:52:13.553Z,100265.34
2024-04-17T13:57:17.571Z,100292.00
2024-04-17T14:02:21.849Z,100301.25
2024-04-17T14:07:25.951Z,100334.28
2024-04-17T14:12:29.688Z,100356.91
2024-04-17T14:17:33.783Z,100358.97
2024-04-17T14:22:37.528Z,100360.84
2024-04-17T14:27:42.044Z,100362.84
2024-04-17T14:32:45.997Z,100371.97
2024-04-17T14:37:50.722Z,100386.38
2024-04-17T14:42:54.763Z,100392.69
2024-04-17T14:47:58.728Z,100393.66
2024-04-17T14:53:02.983Z,100373.75
2024-04-17T14:58:06.745Z,100325.50
2024-04-17T15:03:10.726Z,100321.00
2024-04-17T15:08:14.921Z,100329.66
2024-04-17T15:13:18.714Z,100304.41
2024-04-17T15:18:22.959Z,100300.34
2024-04-17T15:23:27.121Z,100294.31
2024-04-17T15:28:31.169Z,100289.41
2024-04-17T15:33:37.094Z,100274.63
2024-04-17T15:38:41.148Z,100246.63
2024-04-17T15:43:46.625Z,100218.38
2024-04-17T15:48:50.437Z,100200.53
2024-04-17T15:53:54.443Z,100179.69
2024-04-17T15:58:58.189Z,100182.41
2024-04-17T16:04:02.297Z,100170.44
2024-04-17T16:09:06.274Z,100150.88
2024-04-17T16:14:10.037Z,100118.34
2024-04-17T16:19:14.011Z,100111.34
2024-04-17T16:24:19.110Z,100096.31
2024-04-17T16:29:23.120Z,100083.63
2024-04-17T16:34:27.217Z,100080.31
2024-04-17T16:39:32.878Z,100073.78
2024-04-17T16:44:36.920Z,100052.22
2024-04-17T16:49:41.058Z,100050.25
2024-04-17T16:54:45.314Z,100034.81
2024-04-17T16:59:49.897Z,100024.81
2024-04-17T17:04:55.678Z,100013.34
2024-04-17T17:09:59.539Z,100026.41
2024-04-17T17:15:03.613Z,100011.63
2024-04-17T17:20:09.774Z,100009.72
2024-04-17T17:25:13.710Z,100022.75
2024-04-17T17:30:17.602Z,100018.00
2024-04-17T17:35:21.503Z,100003.19
2024-04-17T17:40:25.753Z,100005.97
2024-04-17T17:45:29.669Z,100004.59
2024-04-17T17:50:33.670Z,100001.22
2024-04-17T17:55:37.392Z,100010.84
2024-04-17T18:00:42.172Z,100000.53
2024-04-17T18:05:56.529Z,99981.00
2024-04-17T18:11:00.729Z,99986.78
2024-04-17T18:16:12.799Z,100001.13
2024-04-17T18:21:24.450Z,99997.22
2024-04-17T18:26:30.377Z,100006.56
2024-04-17T18:31:36.120Z,100002.19
2024-04-17T18:36:39.937Z,100010.41
2024-04-17T18:41:44.261Z,100007.06
2024-04-17T18:46:48.276Z,100008.84
2024-04-17T18:51:53.387Z,100008.97
2024-04-17T18:56:57.093Z,99976.97
2024-04-17T19:02:01.102Z,100007.53
2024-04-17T19:07:05.329Z,100007.16
2024-04-17T19:12:09.595Z,100014.56
2024-04-17T19:17:13.467Z,100013.44
2024-04-17T19:22:17.365Z,100019.53
2024-04-17T19:27:21.289Z,100028.63
2024-04-17T19:32:26.616Z,100037.09
2024-04-17T19:37:30.405Z,100049.81
2024-04-17T19:42:39.524Z,100003.13
2024-04-17T19:47:50.526Z,100047.94
2024-04-17T19:52:54.456Z,100061.56
2024-04-17T19:57:58.221Z,100066.56
2024-04-17T20:03:02.206Z,100065.00
2024-04-17T20:08:06.312Z,100074.25
2024-04-17T20:13:12.155Z,100073.94
2024-04-17T20:18:17.688Z,100069.22
2024-04-17T20:23:23.270Z,100083.59
2024-04-17T20:28:27.046Z,100080.16
2024-04-17T20:33:35.509Z,100084.53
2024-04-17T20:38:40.520Z,100003.66
2024-04-17T20:43:46.102Z,100104.47
2024-04-17T20:48:52.805Z,100101.44
2024-04-17T20:53:56.701Z,100109.06
2024-04-17T20:59:00.425Z,100108.31
2024-04-17T21:04:04.546Z,100112.28
2024-04-17T21:09:08.549Z,100123.97
2024-04-17T21:14:12.658Z,100128.75
2024-04-17T21:19:16.476Z,100143.53
2024-04-17T21:24:22.610Z,100139.56
2024-04-17T21:29:26.719Z,100148.19
2024-04-17T21:34:30.730Z,100160.50
2024-04-17T21:39:34.805Z,100161.31
2024-04-17T21:44:38.725Z,100168.41
2024-04-17T21:49:42.832Z,100180.25
2024-04-17T21:54:46.793Z,100197.00
2024-04-17T21:59:52.275Z,100202.53
2024-04-17T22:04:57.347Z,100193.06
2024-04-17T22:10:01.269Z,100204.50
2024-04-17T22:15:07.792Z,100188.16
2024-04-17T22:20:11.533Z,100213.13
2024-04-17T22:25:15.819Z,100215.94
2024-04-17T22:30:19.664Z,100213.00
2024-04-17T22:35:23.947Z,100230.81
2024-04-17T22:40:27.861Z,100235.59
2024-04-17T22:45:31.984Z,100233.00
2024-04-17T22:50:35.987Z,100253.69
2024-04-17T22:55:39.698Z,100250.47
2024-04-17T23:00:44.187Z,100260.63
2024-04-17T23:05:47.938Z,100257.84
2024-04-17T23:11:01.179Z,100268.75
2024-04-17T23:16:05.348Z,100275.25
2024-04-17T23:21:09.384Z,100281.13
2024-04-17T23:26:13.250Z,100286.44
2024-04-17T23:31:17.110Z,100287.91
2024-04-17T23:36:24.013Z,100297.91
2024-04-17T23:41:27.901Z,100303.91
2024-04-17T23:46:31.830Z,100302.53
2024-04-17T23:51:35.893Z,100319.44
2024-04-17T23:56:39.703Z,100325.38
